Time;durP1;ratioP1;P1;durP2;ratioP2;P2;SDS_P1;SDS_P2;PMS_P1;PMS_P2;Temp;Humidity;BMP_temperature;BMP_pressure;BME280_temperature;BME280_humidity;BME280_pressure;Samples;Min_cycle;Max_cycle;Signal;HPM_P1;HPM_P2
2023/09/02 00:01:51;;;;;;;5.73;3.77;;;;;;;;;;5052142;28;20353;-49
2023/09/02 00:04:17;;;;;;;6.20;4.43;;;;;;;;;;5071148;28;20400;-47
2023/09/02 00:06:43;;;;;;;6.23;4.23;;;;;;;;;;5068665;28;20234;-47
2023/09/02 00:09:09;;;;;;;5.20;4.00;;;;;;;;;;5050835;28;20267;-48
2023/09/02 00:11:35;;;;;;;6.53;4.37;;;;;;;;;;5071238;28;20382;-49
2023/09/02 00:14:02;;;;;;;4.80;4.10;;;;;;;;;;5051918;28;20183;-49
2023/09/02 00:16:28;;;;;;;5.17;4.00;;;;;;;;;;5051236;28;20177;-48
2023/09/02 00:18:54;;;;;;;5.43;4.43;;;;;;;;;;5050216;28;20203;-50
2023/09/02 00:21:20;;;;;;;6.73;5.10;;;;;;;;;;5068575;28;20169;-47
2023/09/02 00:23:49;;;;;;;5.63;4.00;;;;;;;;;;5051799;28;20207;-47
2023/09/02 00:26:21;;;;;;;6.70;3.90;;;;;;;;;;5050698;28;20271;-48
2023/09/02 00:28:47;;;;;;;6.10;4.03;;;;;;;;;;5068969;28;20663;-47
2023/09/02 00:31:13;;;;;;;7.83;4.13;;;;;;;;;;5051761;28;20272;-49
2023/09/02 00:33:40;;;;;;;4.80;3.53;;;;;;;;;;5052564;28;20445;-47
2023/09/02 00:36:06;;;;;;;4.60;3.40;;;;;;;;;;5068284;28;20327;-48
2023/09/02 00:38:32;;;;;;;6.07;3.47;;;;;;;;;;5052604;28;20512;-49
2023/09/02 00:41:35;;;;;;;4.80;3.97;;;;;;;;;;5053275;28;20261;-48
2023/09/02 00:44:02;;;;;;;5.27;3.97;;;;;;;;;;5069571;28;20199;-47
2023/09/02 00:46:28;;;;;;;5.23;3.87;;;;;;;;;;5051065;28;20774;-49
2023/09/02 00:48:54;;;;;;;4.87;3.63;;;;;;;;;;5050847;28;20172;-49
2023/09/02 00:51:20;;;;;;;5.77;4.17;;;;;;;;;;5068731;28;20169;-48
2023/09/02 00:53:50;;;;;;;5.93;4.10;;;;;;;;;;5050924;28;20171;-48
2023/09/02 00:56:24;;;;;;;5.33;3.90;;;;;;;;;;5050678;28;20235;-49
2023/09/02 00:58:56;;;;;;;6.70;3.87;;;;;;;;;;5049371;28;20173;-49
2023/09/02 01:01:22;;;;;;;6.23;4.23;;;;;;;;;;5066440;28;20211;-47
2023/09/02 01:03:48;;;;;;;7.30;4.33;;;;;;;;;;5048483;28;20360;-48
2023/09/02 01:06:14;;;;;;;7.80;4.80;;;;;;;;;;5051010;28;20179;-47
2023/09/02 01:08:41;;;;;;;9.70;4.50;;;;;;;;;;5052345;28;20260;-47
2023/09/02 01:11:07;;;;;;;6.23;3.93;;;;;;;;;;5069766;28;20419;-47
2023/09/02 01:13:33;;;;;;;7.53;4.40;;;;;;;;;;5050789;28;20391;-47
2023/09/02 01:16:02;;;;;;;5.27;4.40;;;;;;;;;;5069256;28;20259;-51
2023/09/02 01:18:29;;;;;;;7.07;4.60;;;;;;;;;;5052300;28;20173;-48
2023/09/02 01:21:16;;;;;;;5.70;4.57;;;;;;;;;;5052253;28;20287;-48
2023/09/02 01:24:01;;;;;;;6.40;4.50;;;;;;;;;;5049111;28;20636;-51
2023/09/02 01:26:45;;;;;;;5.87;4.10;;;;;;;;;;5069314;28;20185;-47
2023/09/02 01:29:13;;;;;;;6.93;4.57;;;;;;;;;;5069186;28;20498;-47
2023/09/02 01:31:40;;;;;;;7.40;5.27;;;;;;;;;;5050274;28;20176;-48
2023/09/02 01:34:11;;;;;;;6.93;5.70;;;;;;;;;;5050577;28;20473;-50
2023/09/02 01:36:38;;;;;;;6.80;4.67;;;;;;;;;;5050994;28;20199;-47
2023/09/02 01:39:10;;;;;;;8.60;5.07;;;;;;;;;;5050884;28;20227;-48
2023/09/02 01:41:37;;;;;;;6.73;4.33;;;;;;;;;;5051135;28;20181;-48
2023/09/02 01:44:03;;;;;;;6.57;4.70;;;;;;;;;;5068395;28;20176;-48
2023/09/02 01:49:43;;;;;;;5.87;4.03;;;;;;;;;;5068403;28;20256;-47
2023/09/02 01:52:13;;;;;;;5.43;4.60;;;;;;;;;;5051501;28;20505;-48
2023/09/02 01:54:45;;;;;;;6.30;4.13;;;;;;;;;;5069440;28;20204;-52
2023/09/02 01:57:11;;;;;;;8.47;4.00;;;;;;;;;;5049742;28;20445;-47
2023/09/02 01:59:37;;;;;;;5.03;4.53;;;;;;;;;;5048900;28;20318;-49
2023/09/02 02:02:04;;;;;;;5.13;4.60;;;;;;;;;;5049368;28;20387;-49
2023/09/02 02:04:38;;;;;;;5.03;4.30;;;;;;;;;;5065498;28;20524;-48
2023/09/02 02:07:06;;;;;;;5.60;4.70;;;;;;;;;;5064897;28;20208;-49
2023/09/02 02:09:34;;;;;;;5.83;4.63;;;;;;;;;;5047248;28;20177;-47
2023/09/02 02:12:01;;;;;;;6.23;4.37;;;;;;;;;;5047245;28;20172;-48
2023/09/02 02:14:31;;;;;;;5.90;4.67;;;;;;;;;;5047926;28;20172;-49
2023/09/02 02:17:01;;;;;;;7.33;4.30;;;;;;;;;;5048227;28;20176;-48
2023/09/02 02:19:39;;;;;;;5.17;4.10;;;;;;;;;;5049896;28;20266;-50
2023/09/02 02:22:05;;;;;;;7.17;4.20;;;;;;;;;;5050097;28;20221;-48
2023/09/02 02:24:34;;;;;;;8.20;4.23;;;;;;;;;;5068244;28;20525;-47
2023/09/02 02:27:00;;;;;;;5.47;4.20;;;;;;;;;;5050825;28;20303;-50
2023/09/02 02:29:26;;;;;;;4.73;4.17;;;;;;;;;;5051523;28;20274;-50
2023/09/02 02:31:52;;;;;;;6.57;4.37;;;;;;;;;;5052660;28;20293;-48
2023/09/02 02:34:18;;;;;;;5.83;4.10;;;;;;;;;;5051933;28;20175;-47
2023/09/02 02:36:44;;;;;;;5.77;3.83;;;;;;;;;;5050914;28;20180;-47
2023/09/02 02:39:10;;;;;;;6.53;4.17;;;;;;;;;;5050578;28;20205;-49
2023/09/02 02:41:39;;;;;;;5.70;4.00;;;;;;;;;;5050442;28;20272;-53
2023/09/02 02:44:06;;;;;;;4.57;3.90;;;;;;;;;;5068014;28;20165;-48
2023/09/02 02:46:53;;;;;;;5.17;4.03;;;;;;;;;;5050717;28;20302;-51
2023/09/02 02:49:19;;;;;;;5.60;4.43;;;;;;;;;;5051234;28;20185;-49
2023/09/02 02:51:46;;;;;;;5.17;4.00;;;;;;;;;;5050417;28;20161;-48
2023/09/02 02:54:12;;;;;;;4.17;3.70;;;;;;;;;;5049381;28;20330;-50
2023/09/02 02:56:38;;;;;;;5.13;3.43;;;;;;;;;;5050017;28;20181;-50
2023/09/02 02:59:07;;;;;;;5.77;3.63;;;;;;;;;;5049241;28;20177;-49
2023/09/02 03:01:36;;;;;;;5.10;3.93;;;;;;;;;;5053284;28;20180;-48
2023/09/02 03:04:08;;;;;;;5.93;4.23;;;;;;;;;;5053693;28;20536;-50
2023/09/02 03:06:35;;;;;;;6.30;4.20;;;;;;;;;;5052519;28;20298;-50
2023/09/02 03:09:23;;;;;;;4.67;3.50;;;;;;;;;;5051881;28;20183;-50
2023/09/02 03:11:49;;;;;;;4.87;3.73;;;;;;;;;;5052536;28;20173;-47
2023/09/02 03:14:15;;;;;;;6.13;4.60;;;;;;;;;;5053062;28;20487;-47
2023/09/02 03:16:47;;;;;;;5.37;3.80;;;;;;;;;;5054295;28;20184;-47
2023/09/02 03:19:20;;;;;;;4.97;3.97;;;;;;;;;;5053489;28;20216;-49
2023/09/02 03:21:46;;;;;;;4.60;4.10;;;;;;;;;;5054996;28;20180;-47
2023/09/02 03:24:18;;;;;;;8.07;4.37;;;;;;;;;;5071746;28;20183;-50
2023/09/02 03:26:44;;;;;;;4.57;3.57;;;;;;;;;;5054959;28;20235;-48
2023/09/02 03:29:10;;;;;;;4.37;3.67;;;;;;;;;;5053204;28;20216;-49
2023/09/02 03:31:37;;;;;;;5.07;3.90;;;;;;;;;;5072934;28;20176;-47
2023/09/02 03:34:02;;;;;;;5.70;3.90;;;;;;;;;;5054289;28;20172;-52
2023/09/02 03:36:28;;;;;;;6.70;3.83;;;;;;;;;;5054646;28;20346;-51
2023/09/02 03:38:54;;;;;;;7.00;4.10;;;;;;;;;;5054833;28;20181;-48
2023/09/02 03:41:29;;;;;;;4.73;3.70;;;;;;;;;;5054503;28;20172;-50
2023/09/02 03:43:56;;;;;;;4.63;3.50;;;;;;;;;;5054742;28;20270;-48
2023/09/02 03:46:24;;;;;;;5.90;3.43;;;;;;;;;;5054402;28;20269;-51
2023/09/02 03:48:50;;;;;;;4.03;3.53;;;;;;;;;;5053822;28;20272;-49
2023/09/02 03:51:16;;;;;;;6.27;4.00;;;;;;;;;;5055053;28;20526;-52
2023/09/02 03:53:42;;;;;;;5.33;4.07;;;;;;;;;;5054173;28;20330;-49
2023/09/02 03:56:08;;;;;;;4.27;3.73;;;;;;;;;;5072411;28;20169;-48
2023/09/02 03:58:34;;;;;;;4.23;3.57;;;;;;;;;;5052799;28;20172;-51
2023/09/02 04:01:00;;;;;;;4.80;3.37;;;;;;;;;;5053346;28;20180;-47
2023/09/02 04:03:27;;;;;;;4.50;3.93;;;;;;;;;;5055362;28;20176;-53
2023/09/02 04:05:53;;;;;;;6.50;4.57;;;;;;;;;;5052714;28;20177;-47
2023/09/02 04:08:20;;;;;;;4.47;3.87;;;;;;;;;;5053531;28;20240;-49
2023/09/02 04:10:56;;;;;;;4.03;3.33;;;;;;;;;;5070384;28;20176;-48
2023/09/02 04:13:23;;;;;;;4.60;3.57;;;;;;;;;;5053146;28;20237;-53
2023/09/02 04:15:49;;;;;;;5.67;3.83;;;;;;;;;;5051891;28;20205;-49
2023/09/02 04:18:15;;;;;;;5.70;3.63;;;;;;;;;;5051583;28;20477;-48
2023/09/02 04:20:41;;;;;;;6.93;4.00;;;;;;;;;;5052342;28;20181;-48
2023/09/02 04:23:07;;;;;;;4.47;4.07;;;;;;;;;;5051681;28;20202;-49
2023/09/02 04:25:33;;;;;;;4.57;4.03;;;;;;;;;;5050847;28;20194;-47
2023/09/02 04:27:59;;;;;;;5.03;3.30;;;;;;;;;;5070012;28;20204;-49
2023/09/02 04:30:25;;;;;;;5.93;4.20;;;;;;;;;;5070113;28;20219;-48
2023/09/02 04:32:51;;;;;;;6.50;3.70;;;;;;;;;;5071114;28;20429;-54
2023/09/02 04:35:17;;;;;;;6.47;3.90;;;;;;;;;;5053685;28;20170;-53
2023/09/02 04:37:43;;;;;;;5.90;3.70;;;;;;;;;;5054227;28;20185;-49
2023/09/02 04:40:10;;;;;;;5.30;3.80;;;;;;;;;;5053872;28;20207;-47
2023/09/02 04:42:40;;;;;;;5.00;4.17;;;;;;;;;;5052230;28;20319;-49
2023/09/02 04:45:07;;;;;;;5.87;4.07;;;;;;;;;;5051129;28;20302;-49
2023/09/02 04:47:32;;;;;;;6.50;4.47;;;;;;;;;;5053007;28;20222;-48
2023/09/02 04:49:58;;;;;;;6.30;4.30;;;;;;;;;;5052252;28;20169;-47
2023/09/02 04:52:24;;;;;;;9.13;4.40;;;;;;;;;;5051884;28;20288;-50
2023/09/02 04:54:50;;;;;;;4.80;4.07;;;;;;;;;;5051870;28;20457;-49
2023/09/02 04:57:16;;;;;;;8.93;4.07;;;;;;;;;;5069526;28;20445;-47
2023/09/02 04:59:42;;;;;;;6.53;4.50;;;;;;;;;;5051738;28;20600;-49
2023/09/02 05:02:08;;;;;;;5.00;4.00;;;;;;;;;;5050943;28;20208;-47
2023/09/02 05:04:34;;;;;;;9.13;4.67;;;;;;;;;;5053219;28;20377;-47
2023/09/02 05:07:00;;;;;;;7.23;4.03;;;;;;;;;;5070799;28;20196;-49
2023/09/02 05:09:26;;;;;;;4.97;4.20;;;;;;;;;;5069859;28;20542;-48
2023/09/02 05:11:52;;;;;;;6.77;4.10;;;;;;;;;;5051068;28;20169;-47
2023/09/02 05:14:18;;;;;;;6.37;4.30;;;;;;;;;;5049772;28;20234;-51
2023/09/02 05:16:44;;;;;;;5.23;3.70;;;;;;;;;;5049642;28;20276;-50
2023/09/02 05:19:10;;;;;;;6.60;4.33;;;;;;;;;;5067139;28;20173;-48
2023/09/02 05:21:36;;;;;;;5.43;3.53;;;;;;;;;;5049549;28;20257;-50
2023/09/02 05:24:02;;;;;;;6.67;4.13;;;;;;;;;;5068213;28;20698;-50
2023/09/02 05:26:28;;;;;;;5.07;4.20;;;;;;;;;;5050911;28;20730;-47
2023/09/02 05:28:54;;;;;;;5.87;4.07;;;;;;;;;;5051030;28;20322;-48
2023/09/02 05:31:20;;;;;;;7.40;4.13;;;;;;;;;;5068166;28;20165;-49
2023/09/02 05:33:46;;;;;;;5.67;4.10;;;;;;;;;;5051471;28;20186;-49
2023/09/02 05:36:12;;;;;;;5.37;4.17;;;;;;;;;;5068352;28;20248;-49
2023/09/02 05:38:38;;;;;;;4.93;4.17;;;;;;;;;;5050434;28;20462;-48
2023/09/02 05:41:04;;;;;;;6.77;4.57;;;;;;;;;;5051100;28;20651;-49
2023/09/02 05:43:30;;;;;;;7.00;4.67;;;;;;;;;;5049614;28;20180;-51
2023/09/02 05:46:01;;;;;;;4.97;4.00;;;;;;;;;;5049622;28;20184;-47
2023/09/02 05:48:27;;;;;;;6.90;4.50;;;;;;;;;;5049149;28;20224;-50
2023/09/02 05:50:57;;;;;;;9.30;4.57;;;;;;;;;;5048616;28;20173;-48
2023/09/02 05:53:23;;;;;;;5.23;4.37;;;;;;;;;;5049897;28;20207;-50
2023/09/02 05:55:53;;;;;;;9.00;5.07;;;;;;;;;;5066233;28;20353;-51
2023/09/02 05:58:19;;;;;;;7.90;5.30;;;;;;;;;;5047623;28;20469;-50
2023/09/02 06:00:45;;;;;;;7.13;5.03;;;;;;;;;;5045825;28;20628;-49
2023/09/02 06:03:11;;;;;;;11.10;5.17;;;;;;;;;;5048923;28;20325;-50
2023/09/02 06:05:37;;;;;;;7.30;4.90;;;;;;;;;;5050791;28;20277;-48
2023/09/02 06:08:03;;;;;;;6.33;5.03;;;;;;;;;;5049724;28;20390;-51
2023/09/02 06:10:29;;;;;;;8.77;5.30;;;;;;;;;;5067375;28;20359;-47
2023/09/02 06:12:55;;;;;;;5.47;4.50;;;;;;;;;;5049219;28;20169;-51
2023/09/02 06:15:21;;;;;;;10.77;5.27;;;;;;;;;;5050021;28;20335;-51
2023/09/02 06:17:47;;;;;;;9.37;5.60;;;;;;;;;;5066912;28;20184;-49
2023/09/02 06:20:16;;;;;;;6.13;4.87;;;;;;;;;;5049132;28;20172;-50
2023/09/02 06:22:42;;;;;;;6.83;5.03;;;;;;;;;;5049596;28;20175;-51
2023/09/02 06:25:08;;;;;;;8.93;5.67;;;;;;;;;;5048704;28;20415;-48
2023/09/02 06:27:34;;;;;;;8.90;5.23;;;;;;;;;;5066407;28;20349;-49
2023/09/02 06:30:00;;;;;;;7.77;6.20;;;;;;;;;;5065451;28;20520;-48
2023/09/02 06:32:26;;;;;;;6.70;5.57;;;;;;;;;;5066810;28;20390;-50
2023/09/02 06:34:55;;;;;;;6.90;5.50;;;;;;;;;;5065841;28;20416;-48
2023/09/02 06:37:21;;;;;;;9.10;5.53;;;;;;;;;;5066055;28;20176;-51
2023/09/02 06:39:47;;;;;;;8.33;4.87;;;;;;;;;;5048452;28;20177;-48
2023/09/02 06:42:13;;;;;;;7.30;4.80;;;;;;;;;;5048928;28;20178;-48
2023/09/02 06:44:39;;;;;;;5.17;4.50;;;;;;;;;;5049647;28;20333;-49
2023/09/02 06:47:05;;;;;;;8.43;5.33;;;;;;;;;;5049403;28;20247;-49
2023/09/02 06:49:32;;;;;;;4.80;4.10;;;;;;;;;;5049409;28;20241;-47
2023/09/02 06:51:58;;;;;;;6.10;4.47;;;;;;;;;;5048749;28;20173;-48
2023/09/02 06:54:24;;;;;;;3.50;3.20;;;;;;;;;;5048842;28;20200;-48
2023/09/02 06:56:50;;;;;;;7.40;3.93;;;;;;;;;;5049454;28;20227;-48
2023/09/02 06:59:16;;;;;;;6.73;4.30;;;;;;;;;;5069041;28;20183;-48
2023/09/02 07:01:42;;;;;;;4.90;3.60;;;;;;;;;;5050506;28;20176;-52
2023/09/02 07:04:08;;;;;;;7.77;3.77;;;;;;;;;;5048981;28;20191;-47
2023/09/02 07:06:34;;;;;;;5.07;3.63;;;;;;;;;;5046623;28;20536;-47
2023/09/02 07:09:00;;;;;;;4.80;3.50;;;;;;;;;;5045875;28;20169;-48
2023/09/02 07:11:26;;;;;;;4.83;3.50;;;;;;;;;;5046233;28;20635;-50
2023/09/02 07:13:52;;;;;;;3.50;2.57;;;;;;;;;;5042837;28;20180;-48
2023/09/02 07:16:20;;;;;;;4.63;3.33;;;;;;;;;;5043050;28;20195;-51
2023/09/02 07:18:46;;;;;;;4.50;2.87;;;;;;;;;;5044097;28;20180;-48
2023/09/02 07:21:12;;;;;;;5.40;2.50;;;;;;;;;;5045932;28;20195;-50
2023/09/02 07:23:38;;;;;;;6.57;2.80;;;;;;;;;;5045678;28;20173;-47
2023/09/02 07:26:04;;;;;;;3.63;2.60;;;;;;;;;;5045269;28;20184;-47
2023/09/02 07:28:31;;;;;;;2.70;2.50;;;;;;;;;;5063419;28;20199;-50
2023/09/02 07:31:05;;;;;;;3.27;2.77;;;;;;;;;;5044368;28;20311;-54
2023/09/02 07:33:31;;;;;;;5.03;2.40;;;;;;;;;;5059829;28;20176;-49
2023/09/02 07:35:59;;;;;;;3.47;2.40;;;;;;;;;;5058920;28;20162;-52
2023/09/02 07:38:26;;;;;;;5.27;2.27;;;;;;;;;;5059520;28;20611;-49
2023/09/02 07:40:52;;;;;;;5.23;2.40;;;;;;;;;;5040571;28;20332;-47
2023/09/02 07:43:18;;;;;;;3.03;2.27;;;;;;;;;;5037550;28;20448;-52
2023/09/02 07:45:44;;;;;;;4.83;2.40;;;;;;;;;;5042136;28;20180;-48
2023/09/02 07:48:10;;;;;;;2.60;2.17;;;;;;;;;;5047012;28;20278;-47
2023/09/02 07:50:36;;;;;;;2.63;2.40;;;;;;;;;;5064451;28;20563;-49
2023/09/02 07:53:02;;;;;;;2.90;2.40;;;;;;;;;;5047171;28;20164;-48
2023/09/02 07:55:28;;;;;;;3.00;2.07;;;;;;;;;;5047807;28;20495;-50
2023/09/02 07:57:54;;;;;;;2.90;2.03;;;;;;;;;;5049899;28;20429;-50
2023/09/02 08:00:20;;;;;;;2.00;1.80;;;;;;;;;;5048291;28;20187;-48
2023/09/02 08:02:46;;;;;;;4.70;1.90;;;;;;;;;;5048740;28;20417;-47
2023/09/02 08:05:12;;;;;;;3.60;2.20;;;;;;;;;;5067188;28;20180;-49
2023/09/02 08:07:38;;;;;;;6.03;1.60;;;;;;;;;;5048220;28;20266;-50
2023/09/02 08:10:04;;;;;;;2.07;1.90;;;;;;;;;;5048046;28;20181;-50
2023/09/02 08:12:30;;;;;;;3.67;1.60;;;;;;;;;;5049516;28;20618;-51
2023/09/02 08:14:57;;;;;;;1.90;1.53;;;;;;;;;;5049121;28;20172;-49
2023/09/02 08:17:23;;;;;;;3.33;2.53;;;;;;;;;;5064075;28;20176;-47
2023/09/02 08:19:49;;;;;;;2.40;1.70;;;;;;;;;;5063036;28;20241;-50
2023/09/02 08:22:15;;;;;;;2.40;1.80;;;;;;;;;;5062949;28;20367;-49
2023/09/02 08:24:41;;;;;;;4.00;1.93;;;;;;;;;;5046064;28;20328;-48
2023/09/02 08:27:07;;;;;;;6.53;1.30;;;;;;;;;;5046453;28;20196;-50
2023/09/02 08:29:33;;;;;;;2.00;1.20;;;;;;;;;;5046369;28;20400;-48
2023/09/02 08:32:00;;;;;;;3.27;1.37;;;;;;;;;;5045628;28;20187;-48
2023/09/02 08:34:26;;;;;;;5.10;1.77;;;;;;;;;;5064039;28;20223;-48
2023/09/02 08:36:52;;;;;;;3.63;1.40;;;;;;;;;;5046374;28;20173;-51
2023/09/02 08:39:18;;;;;;;1.97;1.20;;;;;;;;;;5045731;28;20258;-48
2023/09/02 08:41:45;;;;;;;2.07;1.53;;;;;;;;;;5063051;28;20633;-52
2023/09/02 08:44:18;;;;;;;3.63;1.50;;;;;;;;;;5061774;28;20291;-50
2023/09/02 08:46:46;;;;;;;1.23;1.10;;;;;;;;;;5044691;28;20295;-47
2023/09/02 08:49:15;;;;;;;2.40;1.07;;;;;;;;;;5047479;28;20173;-48
2023/09/02 08:51:42;;;;;;;2.40;1.30;;;;;;;;;;5069436;28;20290;-48
2023/09/02 08:54:11;;;;;;;1.30;1.20;;;;;;;;;;5052430;28;20729;-49
2023/09/02 08:56:41;;;;;;;1.43;1.03;;;;;;;;;;5051248;28;20177;-50
2023/09/02 08:59:08;;;;;;;2.37;1.30;;;;;;;;;;5069313;28;20239;-52
2023/09/02 09:01:34;;;;;;;1.60;1.17;;;;;;;;;;5050335;28;20273;-51
2023/09/02 09:04:00;;;;;;;0.87;0.87;;;;;;;;;;5069360;28;20214;-50
2023/09/02 09:06:26;;;;;;;2.93;1.20;;;;;;;;;;5050719;28;20173;-51
2023/09/02 09:08:53;;;;;;;1.33;1.20;;;;;;;;;;5051072;28;20168;-50
2023/09/02 09:11:21;;;;;;;1.47;1.10;;;;;;;;;;5050364;28;20173;-51
2023/09/02 09:13:49;;;;;;;2.70;1.77;;;;;;;;;;5050849;28;20180;-54
2023/09/02 09:16:17;;;;;;;3.63;1.33;;;;;;;;;;5048650;28;20279;-54
2023/09/02 09:18:43;;;;;;;1.50;1.20;;;;;;;;;;5050704;28;20198;-51
2023/09/02 09:21:09;;;;;;;1.50;1.20;;;;;;;;;;5067421;28;20601;-51
2023/09/02 09:23:36;;;;;;;2.63;1.20;;;;;;;;;;5051907;28;20283;-49
2023/09/02 09:26:05;;;;;;;1.10;0.93;;;;;;;;;;5068623;28;20809;-50
2023/09/02 09:28:53;;;;;;;1.37;1.20;;;;;;;;;;5050915;28;20354;-53
2023/09/02 09:31:19;;;;;;;2.70;1.10;;;;;;;;;;5050163;28;20209;-53
2023/09/02 09:33:58;;;;;;;1.17;1.07;;;;;;;;;;5033220;28;20174;-52
2023/09/02 09:36:25;;;;;;;2.23;1.20;;;;;;;;;;5032486;28;20248;-54
2023/09/02 09:39:09;;;;;;;1.40;0.83;;;;;;;;;;5031948;28;20197;-51
2023/09/02 09:41:35;;;;;;;2.10;1.10;;;;;;;;;;5049750;28;20172;-48
2023/09/02 09:44:12;;;;;;;2.67;0.93;;;;;;;;;;5033271;28;20181;-48
2023/09/02 09:46:43;;;;;;;1.20;1.10;;;;;;;;;;5032787;28;20541;-53
2023/09/02 09:49:21;;;;;;;2.83;1.70;;;;;;;;;;5033573;28;20553;-54
2023/09/02 09:51:47;;;;;;;1.40;1.20;;;;;;;;;;5048890;28;20166;-51
2023/09/02 09:54:13;;;;;;;2.73;1.20;;;;;;;;;;5030809;28;20177;-51
2023/09/02 09:56:43;;;;;;;1.43;1.00;;;;;;;;;;5031147;28;20177;-52
2023/09/02 09:59:09;;;;;;;1.30;1.10;;;;;;;;;;5047115;28;20165;-48
2023/09/02 10:01:36;;;;;;;1.43;1.07;;;;;;;;;;5046722;28;20169;-52
2023/09/02 10:04:08;;;;;;;2.00;1.20;;;;;;;;;;5030906;28;20216;-50
2023/09/02 10:06:41;;;;;;;1.40;1.30;;;;;;;;;;5029599;28;20173;-49
2023/09/02 10:09:07;;;;;;;1.87;1.50;;;;;;;;;;5029761;28;20526;-53
2023/09/02 10:11:33;;;;;;;1.40;1.10;;;;;;;;;;5047889;28;20234;-50
2023/09/02 10:14:00;;;;;;;2.50;1.10;;;;;;;;;;5031796;28;20180;-50
2023/09/02 10:16:26;;;;;;;1.30;1.10;;;;;;;;;;5030741;28;20709;-53
2023/09/02 10:18:52;;;;;;;1.43;1.20;;;;;;;;;;5030070;28;20292;-51
2023/09/02 10:21:21;;;;;;;1.17;0.97;;;;;;;;;;5047958;28;20233;-54
2023/09/02 10:23:55;;;;;;;1.00;0.90;;;;;;;;;;5028971;28;20205;-50
2023/09/02 10:26:41;;;;;;;2.90;1.30;;;;;;;;;;5029615;28;20272;-54
2023/09/02 10:29:12;;;;;;;1.87;1.37;;;;;;;;;;5033282;28;20883;-54
2023/09/02 10:31:45;;;;;;;3.40;1.50;;;;;;;;;;5067531;28;20188;-52
2023/09/02 10:34:15;;;;;;;1.87;1.40;;;;;;;;;;5050734;28;20267;-49
2023/09/02 10:36:44;;;;;;;3.00;1.30;;;;;;;;;;5067210;28;20196;-47
2023/09/02 10:39:14;;;;;;;1.63;1.07;;;;;;;;;;5064166;28;20226;-48
2023/09/02 10:41:41;;;;;;;1.30;1.20;;;;;;;;;;5046686;28;20181;-50
2023/09/02 10:44:07;;;;;;;4.03;1.30;;;;;;;;;;5049302;28;20168;-51
2023/09/02 10:46:33;;;;;;;1.73;1.27;;;;;;;;;;5049810;28;20798;-51
2023/09/02 10:49:01;;;;;;;1.40;1.27;;;;;;;;;;5049985;28;20191;-50
2023/09/02 10:51:27;;;;;;;1.90;1.10;;;;;;;;;;5049995;28;20169;-48
2023/09/02 10:53:53;;;;;;;3.07;1.17;;;;;;;;;;5068671;28;20773;-48
2023/09/02 10:56:28;;;;;;;1.47;1.17;;;;;;;;;;5048609;28;20161;-50
2023/09/02 10:58:55;;;;;;;2.63;1.27;;;;;;;;;;5067587;28;20205;-49
2023/09/02 11:01:21;;;;;;;2.77;1.20;;;;;;;;;;5049512;28;20180;-48
2023/09/02 11:03:49;;;;;;;2.27;1.37;;;;;;;;;;5050971;28;20277;-52
2023/09/02 11:06:16;;;;;;;1.70;1.30;;;;;;;;;;5050618;28;20237;-48
2023/09/02 11:08:44;;;;;;;2.73;1.50;;;;;;;;;;5049984;28;20205;-46
2023/09/02 11:11:12;;;;;;;4.57;0.90;;;;;;;;;;5067910;28;20203;-48
2023/09/02 11:13:58;;;;;;;1.90;1.27;;;;;;;;;;5051424;28;20520;-49
2023/09/02 11:16:24;;;;;;;2.50;1.30;;;;;;;;;;5050039;28;20233;-51
2023/09/02 11:18:50;;;;;;;2.70;1.27;;;;;;;;;;5050830;28;20614;-50
2023/09/02 11:21:35;;;;;;;3.20;1.10;;;;;;;;;;5070375;28;20251;-47
2023/09/02 11:24:13;;;;;;;1.83;1.15;;;;;;;;;;5069211;28;20173;-47
2023/09/02 11:26:56;;;;;;;1.73;0.90;;;;;;;;;;5069187;28;20169;-51
2023/09/02 11:29:25;;;;;;;1.58;1.42;;;;;;;;;;5052116;28;20239;-47
2023/09/02 11:32:01;;;;;;;1.67;1.27;;;;;;;;;;5068350;28;20177;-50
2023/09/02 11:34:27;;;;;;;1.02;0.90;;;;;;;;;;5051494;28;20216;-48
2023/09/02 11:36:56;;;;;;;3.08;1.17;;;;;;;;;;5045991;28;20236;-47
2023/09/02 11:39:29;;;;;;;1.33;1.08;;;;;;;;;;5060370;28;20513;-47
2023/09/02 11:42:13;;;;;;;1.00;1.00;;;;;;;;;;5043342;28;20244;-47
2023/09/02 11:44:52;;;;;;;1.55;1.30;;;;;;;;;;5040749;28;20401;-48
2023/09/02 11:47:18;;;;;;;1.27;1.17;;;;;;;;;;5041584;28;20706;-49
2023/09/02 11:49:44;;;;;;;1.85;1.27;;;;;;;;;;5042474;28;20557;-49
2023/09/02 11:52:21;;;;;;;5.00;1.10;;;;;;;;;;5057429;28;20222;-49
2023/09/02 11:54:47;;;;;;;2.05;1.20;;;;;;;;;;5042042;28;20371;-50
2023/09/02 11:57:23;;;;;;;2.38;1.20;;;;;;;;;;5058425;28;20603;-47
2023/09/02 11:59:49;;;;;;;1.48;1.25;;;;;;;;;;5040324;28;20455;-48
2023/09/02 12:02:17;;;;;;;1.60;1.20;;;;;;;;;;5039628;28;20429;-51
2023/09/02 12:04:47;;;;;;;1.17;1.00;;;;;;;;;;5038171;28;20447;-51
2023/09/02 12:07:13;;;;;;;1.43;1.10;;;;;;;;;;5040258;28;20205;-47
2023/09/02 12:09:39;;;;;;;1.03;0.90;;;;;;;;;;5058397;28;20184;-47
2023/09/02 12:12:05;;;;;;;2.93;1.20;;;;;;;;;;5058671;28;20252;-46
2023/09/02 12:14:32;;;;;;;1.40;1.17;;;;;;;;;;5033667;28;20170;-51
2023/09/02 12:17:01;;;;;;;1.30;1.10;;;;;;;;;;5043412;28;20429;-48
2023/09/02 12:19:28;;;;;;;3.10;1.00;;;;;;;;;;5025766;28;20178;-49
2023/09/02 12:21:54;;;;;;;1.37;1.10;;;;;;;;;;5041435;28;20583;-49
2023/09/02 12:24:21;;;;;;;1.10;1.00;;;;;;;;;;5024118;28;20182;-47
2023/09/02 12:26:48;;;;;;;2.33;1.20;;;;;;;;;;5041359;28;20376;-48
2023/09/02 12:29:17;;;;;;;1.43;1.10;;;;;;;;;;5024038;28;20609;-49
2023/09/02 12:31:57;;;;;;;2.20;0.90;;;;;;;;;;5040227;28;20185;-47
2023/09/02 12:34:23;;;;;;;2.27;1.07;;;;;;;;;;5025057;28;20251;-49
2023/09/02 12:36:52;;;;;;;3.27;1.47;;;;;;;;;;5021611;28;20571;-49
2023/09/02 12:39:22;;;;;;;2.37;1.10;;;;;;;;;;5019903;28;20274;-50
2023/09/02 12:41:52;;;;;;;2.00;1.00;;;;;;;;;;5018273;28;20584;-46
2023/09/02 12:44:19;;;;;;;3.40;1.20;;;;;;;;;;5035591;28;20438;-48
2023/09/02 12:46:53;;;;;;;1.20;1.03;;;;;;;;;;5017126;28;20282;-50
2023/09/02 12:49:20;;;;;;;2.27;0.83;;;;;;;;;;5017962;28;20399;-46
2023/09/02 12:51:46;;;;;;;1.00;0.90;;;;;;;;;;5020488;28;20268;-52
2023/09/02 12:54:12;;;;;;;1.43;0.97;;;;;;;;;;5038034;28;20292;-47
2023/09/02 12:56:39;;;;;;;0.70;0.70;;;;;;;;;;5021918;28;20345;-49
2023/09/02 12:59:05;;;;;;;2.53;1.10;;;;;;;;;;5020412;28;20173;-47
2023/09/02 13:01:31;;;;;;;0.90;0.80;;;;;;;;;;5039655;28;20355;-48
2023/09/02 13:04:01;;;;;;;2.67;1.20;;;;;;;;;;5023184;28;20173;-47
2023/09/02 13:06:27;;;;;;;1.20;1.10;;;;;;;;;;5024553;28;20256;-51
2023/09/02 13:09:00;;;;;;;2.60;1.10;;;;;;;;;;5019264;28;20208;-47
2023/09/02 13:11:26;;;;;;;1.63;1.47;;;;;;;;;;5022617;28;20176;-50
2023/09/02 13:13:56;;;;;;;2.13;1.23;;;;;;;;;;5019131;28;20408;-51
2023/09/02 13:16:22;;;;;;;1.30;0.90;;;;;;;;;;5037577;28;20211;-48
2023/09/02 13:18:48;;;;;;;0.87;0.87;;;;;;;;;;5017672;28;20214;-48
2023/09/02 13:21:14;;;;;;;1.10;1.00;;;;;;;;;;5019072;28;20569;-47
2023/09/02 13:23:41;;;;;;;1.60;1.00;;;;;;;;;;5020000;28;20191;-51
2023/09/02 13:26:17;;;;;;;1.50;0.70;;;;;;;;;;5017548;28;20209;-48
2023/09/02 13:28:43;;;;;;;1.40;1.13;;;;;;;;;;5020147;28;20312;-47
2023/09/02 13:31:09;;;;;;;1.23;1.13;;;;;;;;;;5035225;28;20682;-47
2023/09/02 13:33:40;;;;;;;2.63;1.00;;;;;;;;;;5037596;28;20420;-48
2023/09/02 13:36:09;;;;;;;1.53;1.10;;;;;;;;;;5035668;28;20199;-49
2023/09/02 13:38:38;;;;;;;1.57;1.30;;;;;;;;;;5037177;28;20173;-48
2023/09/02 13:41:04;;;;;;;0.83;0.70;;;;;;;;;;5034032;28;20193;-47
2023/09/02 13:43:32;;;;;;;1.30;0.97;;;;;;;;;;5036269;28;20201;-47
2023/09/02 13:46:09;;;;;;;1.10;1.00;;;;;;;;;;5036430;28;20235;-50
2023/09/02 13:48:35;;;;;;;1.83;1.50;;;;;;;;;;5036152;28;20207;-49
2023/09/02 13:51:08;;;;;;;1.30;1.00;;;;;;;;;;5036766;28;20645;-48
2023/09/02 13:53:34;;;;;;;0.70;0.70;;;;;;;;;;5038860;28;20217;-48
2023/09/02 13:56:00;;;;;;;0.97;0.90;;;;;;;;;;5039806;28;20480;-48
2023/09/02 13:58:32;;;;;;;2.27;0.87;;;;;;;;;;5040520;28;20317;-50
2023/09/02 14:01:05;;;;;;;2.53;1.20;;;;;;;;;;5039489;28;20279;-50
2023/09/02 14:03:32;;;;;;;2.00;1.03;;;;;;;;;;5034426;28;20271;-46
2023/09/02 14:06:01;;;;;;;1.73;1.20;;;;;;;;;;5034238;28;20178;-49
2023/09/02 14:08:44;;;;;;;4.10;1.80;;;;;;;;;;5036962;28;20351;-47
2023/09/02 14:11:10;;;;;;;1.73;1.00;;;;;;;;;;5035848;28;20165;-47
2023/09/02 14:13:42;;;;;;;0.87;0.73;;;;;;;;;;5033956;28;20359;-49
2023/09/02 14:16:08;;;;;;;2.87;1.50;;;;;;;;;;5031333;28;20174;-51
2023/09/02 14:18:37;;;;;;;1.57;1.37;;;;;;;;;;5033449;28;20581;-47
2023/09/02 14:21:03;;;;;;;2.60;1.80;;;;;;;;;;5032470;28;20468;-49
2023/09/02 14:23:32;;;;;;;1.80;1.53;;;;;;;;;;5033098;28;20173;-50
2023/09/02 14:25:58;;;;;;;1.63;1.13;;;;;;;;;;5032550;28;20178;-49
2023/09/02 14:28:25;;;;;;;3.20;1.20;;;;;;;;;;5032724;28;20205;-52
2023/09/02 14:30:52;;;;;;;1.10;1.00;;;;;;;;;;5017911;28;20356;-48
2023/09/02 14:33:17;;;;;;;2.67;1.57;;;;;;;;;;5016649;28;20180;-48
2023/09/02 14:35:44;;;;;;;2.00;1.27;;;;;;;;;;5015793;28;20169;-51
2023/09/02 14:38:09;;;;;;;1.38;1.10;;;;;;;;;;5016313;28;20175;-47
2023/09/02 14:40:38;;;;;;;1.10;0.80;;;;;;;;;;5016718;28;20165;-47
2023/09/02 14:43:11;;;;;;;1.03;0.83;;;;;;;;;;5018435;28;20805;-47
2023/09/02 14:45:40;;;;;;;0.80;0.80;;;;;;;;;;5022516;28;20267;-47
2023/09/02 14:48:13;;;;;;;2.33;1.30;;;;;;;;;;5026463;28;20323;-49
2023/09/02 14:50:40;;;;;;;1.83;0.90;;;;;;;;;;5045450;28;20169;-51
2023/09/02 14:53:11;;;;;;;1.90;1.80;;;;;;;;;;5045043;28;20174;-53